Time;durP1;ratioP1;P1;durP2;ratioP2;P2;SDS_P1;SDS_P2;PMS_P1;PMS_P2;Temp;Humidity;BMP_temperature;BMP_pressure;BME280_temperature;BME280_humidity;BME280_pressure;Samples;Min_cycle;Max_cycle;Signal;HPM_P1;HPM_P2
2021/06/12 00:01:25;;;;;;;5.47;3.93;;;;;;;18.21;75.63;101005.21;126668;1093;64232;-79
2021/06/12 00:03:52;;;;;;;5.57;3.73;;;;;;;18.17;76.47;101001.31;126679;1093;62355;-80
2021/06/12 00:06:22;;;;;;;5.67;4.03;;;;;;;18.12;76.37;101009.18;126816;1093;62319;-79
2021/06/12 00:08:50;;;;;;;5.63;4.27;;;;;;;18.09;76.53;101015.00;126431;1093;63444;-79
2021/06/12 00:11:17;;;;;;;5.43;3.60;;;;;;;18.06;76.36;101010.05;126775;1092;63423;-79
2021/06/12 00:13:44;;;;;;;5.53;4.20;;;;;;;18.04;76.80;101010.28;126607;1093;62897;-79
2021/06/12 00:16:11;;;;;;;8.00;5.10;;;;;;;18.05;77.00;101009.23;126612;1093;62856;-79
2021/06/12 00:18:38;;;;;;;5.73;4.00;;;;;;;18.05;77.35;101003.05;126512;1093;62264;-80
2021/06/12 00:21:06;;;;;;;6.40;4.40;;;;;;;18.08;77.46;101007.97;126573;1093;62948;-78
2021/06/12 00:23:33;;;;;;;5.47;4.27;;;;;;;18.06;77.57;101000.16;126302;1092;63010;-78
2021/06/12 00:26:00;;;;;;;6.63;5.03;;;;;;;18.05;77.85;100997.67;126348;1093;62302;-79
2021/06/12 00:28:27;;;;;;;7.50;4.50;;;;;;;18.03;78.18;101005.13;126750;1093;62820;-78
2021/06/12 00:30:54;;;;;;;7.37;4.40;;;;;;;17.99;78.93;100998.54;126806;1093;64134;-78
2021/06/12 00:33:22;;;;;;;5.57;4.30;;;;;;;17.98;78.37;101003.09;126754;1093;62705;-79
2021/06/12 00:35:49;;;;;;;6.87;3.97;;;;;;;17.98;78.51;100999.56;126705;1092;63418;-79
2021/06/12 00:38:16;;;;;;;4.87;3.93;;;;;;;17.99;78.86;100995.86;126861;1091;62925;-79
2021/06/12 00:40:43;;;;;;;6.63;4.63;;;;;;;18.01;78.87;100996.46;126834;1093;62231;-79
2021/06/12 00:43:10;;;;;;;5.57;4.67;;;;;;;18.03;78.90;100994.39;126833;1092;62708;-80
2021/06/12 00:45:37;;;;;;;5.57;4.50;;;;;;;18.06;78.85;100992.10;126794;1091;62424;-80
2021/06/12 00:48:05;;;;;;;6.47;4.77;;;;;;;18.11;78.81;100988.76;126784;1092;62108;-79
2021/06/12 00:50:33;;;;;;;5.47;4.43;;;;;;;18.13;78.94;100990.17;126866;1092;62481;-79
2021/06/12 00:53:05;;;;;;;7.07;4.20;;;;;;;18.16;78.90;100983.55;126859;1093;62733;-80
2021/06/12 00:55:32;;;;;;;7.15;3.95;;;;;;;18.17;79.39;100985.20;126947;1093;63008;-81
2021/06/12 00:58:00;;;;;;;10.30;4.90;;;;;;;18.20;78.84;100984.75;126460;1093;62973;-80
2021/06/12 01:00:27;;;;;;;7.03;4.60;;;;;;;18.23;78.92;100972.75;126795;1093;62725;-80
2021/06/12 01:02:54;;;;;;;8.53;5.47;;;;;;;18.27;78.62;100968.59;126884;1092;62891;-80
2021/06/12 01:05:23;;;;;;;8.13;5.03;;;;;;;18.30;78.94;100963.61;126783;1093;63823;-80
2021/06/12 01:07:50;;;;;;;7.30;4.47;;;;;;;18.31;78.69;100970.61;127156;1092;62367;-79
2021/06/12 01:10:19;;;;;;;7.53;5.30;;;;;;;18.33;78.84;100971.21;128268;1092;63136;-79
2021/06/12 01:12:49;;;;;;;8.00;5.00;;;;;;;18.37;78.87;100968.92;127139;1093;62829;-79
2021/06/12 01:15:17;;;;;;;5.37;3.83;;;;;;;18.38;79.08;100973.23;126874;1093;62810;-80
2021/06/12 01:17:55;;;;;;;6.67;4.10;;;;;;;18.37;79.00;100974.29;126848;1093;62363;-79
2021/06/12 01:21:01;;;;;;;6.20;4.30;;;;;;;18.36;79.61;100978.03;126625;1093;63123;-80
2021/06/12 01:23:47;;;;;;;;;;;;;;;18.34;78.96;100967.50;126334;1096;62828;-80
2021/06/12 01:26:39;;;;;;;7.23;5.03;;;;;;;18.32;80.04;100974.14;126588;1093;62711;-79
2021/06/12 01:29:19;;;;;;;8.80;5.43;;;;;;;18.30;79.80;100979.72;126979;1093;63470;-80
2021/06/12 01:31:48;;;;;;;8.00;5.67;;;;;;;18.28;79.41;100976.43;126943;1093;63038;-79
2021/06/12 01:34:19;;;;;;;7.73;5.53;;;;;;;18.28;79.84;100971.06;126915;1093;62715;-79
2021/06/12 01:36:47;;;;;;;7.43;4.90;;;;;;;18.28;79.42;100965.69;127036;1093;63009;-80
2021/06/12 01:39:18;;;;;;;7.10;5.77;;;;;;;18.30;79.28;100968.98;126779;1092;63024;-78
2021/06/12 01:41:48;;;;;;;8.73;5.37;;;;;;;18.31;79.47;100959.86;126612;1092;62903;-79
2021/06/12 01:44:16;;;;;;;6.33;4.73;;;;;;;18.32;79.64;100949.97;126761;1093;63006;-78
2021/06/12 01:46:45;;;;;;;8.30;5.50;;;;;;;18.34;79.34;100954.07;126530;1093;62987;-79
2021/06/12 01:49:14;;;;;;;8.53;5.63;;;;;;;18.39;79.27;100947.22;126614;1093;62220;-79
2021/06/12 01:51:42;;;;;;;7.60;5.47;;;;;;;18.44;79.50;100942.81;126665;1093;62971;-78
2021/06/12 01:54:10;;;;;;;5.20;4.53;;;;;;;18.46;79.24;100951.47;126541;1092;62727;-77
2021/06/12 01:56:40;;;;;;;8.13;5.53;;;;;;;18.48;79.44;100943.20;126567;1093;63009;-78
2021/06/12 01:59:08;;;;;;;8.57;5.80;;;;;;;18.48;79.33;100937.83;126640;1093;63468;-78
2021/06/12 02:01:37;;;;;;;10.50;5.50;;;;;;;18.44;79.33;100942.81;126230;1093;62951;-78
2021/06/12 02:04:05;;;;;;;7.90;5.20;;;;;;;18.43;79.94;100943.87;126500;1093;62792;-78
2021/06/12 02:06:35;;;;;;;8.17;5.37;;;;;;;18.42;79.51;100944.08;126502;1091;62951;-78
2021/06/12 02:09:04;;;;;;;10.27;5.70;;;;;;;18.38;79.67;100949.06;126737;1093;63405;-78
2021/06/12 02:11:32;;;;;;;8.67;5.20;;;;;;;18.39;79.56;100949.91;127085;1093;62736;-79
2021/06/12 02:13:59;;;;;;;9.37;5.67;;;;;;;18.38;79.53;100937.50;126624;1093;62610;-78
2021/06/12 02:16:27;;;;;;;8.20;5.60;;;;;;;18.38;79.69;100934.81;126744;1093;62769;-77
2021/06/12 02:18:55;;;;;;;10.77;6.77;;;;;;;18.40;79.65;100930.86;126627;1093;62769;-78
2021/06/12 02:21:23;;;;;;;7.90;5.80;;;;;;;18.43;79.61;100929.63;126948;1093;62143;-79
2021/06/12 02:23:50;;;;;;;9.03;6.23;;;;;;;18.46;79.52;100934.54;126861;1093;62736;-79
2021/06/12 02:26:20;;;;;;;5.20;4.07;;;;;;;18.43;79.93;100940.37;126821;1092;62901;-79
2021/06/12 02:28:49;;;;;;;9.23;6.30;;;;;;;18.40;79.71;100940.79;126979;1093;62932;-80
2021/06/12 02:31:23;;;;;;;9.87;5.07;;;;;;;18.40;79.58;100935.42;126697;1092;62434;-78
2021/06/12 02:33:50;;;;;;;9.40;6.03;;;;;;;18.41;79.89;100943.27;126750;1092;62932;-78
2021/06/12 02:36:17;;;;;;;6.65;4.90;;;;;;;18.41;80.02;100943.27;126688;1093;62438;-79
2021/06/12 02:38:44;;;;;;;8.60;5.87;;;;;;;18.41;80.12;100945.14;126763;1093;62803;-79
2021/06/12 02:41:12;;;;;;;7.13;5.17;;;;;;;18.41;80.16;100945.14;126847;1092;62200;-79
2021/06/12 02:43:40;;;;;;;8.07;5.37;;;;;;;18.42;80.16;100944.08;126743;1093;62754;-78
2021/06/12 02:46:13;;;;;;;9.03;5.27;;;;;;;18.44;80.19;100942.00;126750;1092;62884;-79
2021/06/12 02:48:43;;;;;;;7.23;5.30;;;;;;;18.43;80.10;100937.68;126826;1092;62606;-78
2021/06/12 02:51:11;;;;;;;6.50;5.00;;;;;;;18.39;80.60;100934.61;126678;1093;63605;-79
2021/06/12 02:53:41;;;;;;;8.37;6.20;;;;;;;18.37;80.60;100930.50;126506;1093;63399;-78
2021/06/12 02:56:10;;;;;;;8.35;5.90;;;;;;;18.34;80.82;100937.95;126949;1092;62354;-79
2021/06/12 02:58:40;;;;;;;8.70;6.03;;;;;;;18.33;80.83;100936.30;126680;1092;62987;-77
2021/06/12 03:01:08;;;;;;;8.80;6.00;;;;;;;18.30;80.72;100935.94;126442;1093;63624;-78
2021/06/12 03:03:37;;;;;;;8.47;6.23;;;;;;;18.29;80.86;100939.65;126783;1093;63008;-79
2021/06/12 03:06:05;;;;;;;7.90;5.27;;;;;;;18.28;80.92;100930.78;126871;1093;62935;-79
2021/06/12 03:08:49;;;;;;;8.93;6.20;;;;;;;18.26;81.42;100937.42;126791;1092;63009;-80
2021/06/12 03:11:18;;;;;;;8.23;4.93;;;;;;;18.20;81.65;100936.42;126505;1093;63139;-77
2021/06/12 03:13:47;;;;;;;11.87;6.13;;;;;;;18.14;81.48;100943.48;126319;1093;63073;-77
2021/06/12 03:16:17;;;;;;;8.40;5.60;;;;;;;18.05;81.77;100933.25;126820;1092;63073;-78
2021/06/12 03:18:47;;;;;;;8.60;5.70;;;;;;;18.03;81.97;100940.70;126599;1093;62219;-78
2021/06/12 03:21:23;;;;;;;9.13;5.73;;;;;;;17.99;82.37;100936.80;126635;1093;62182;-77
2021/06/12 03:23:52;;;;;;;10.37;6.40;;;;;;;17.94;82.80;100937.46;126484;1093;62925;-78
2021/06/12 03:26:22;;;;;;;9.80;6.77;;;;;;;17.90;82.70;100936.25;126507;1093;63006;-78
2021/06/12 03:28:50;;;;;;;11.73;6.60;;;;;;;17.88;83.59;100931.09;126645;1092;63009;-78
2021/06/12 03:31:19;;;;;;;11.13;7.77;;;;;;;17.86;83.81;100929.67;126654;1093;62999;-79
2021/06/12 03:33:47;;;;;;;12.13;8.30;;;;;;;17.87;84.15;100932.14;126447;1093;63898;-78
2021/06/12 03:36:16;;;;;;;11.80;7.77;;;;;;;17.89;84.37;100935.44;126659;1093;63512;-79
2021/06/12 03:38:43;;;;;;;10.23;8.23;;;;;;;17.92;84.52;100924.25;126735;1093;63671;-79
2021/06/12 03:41:10;;;;;;;10.85;7.65;;;;;;;17.97;84.12;100934.33;126643;1093;63513;-79
2021/06/12 03:43:39;;;;;;;8.50;5.23;;;;;;;18.03;84.44;100940.70;126585;1093;62910;-80
2021/06/12 03:46:07;;;;;;;8.30;5.83;;;;;;;18.06;83.81;100938.41;126219;1093;63102;-79
2021/06/12 03:48:38;;;;;;;11.93;8.00;;;;;;;18.05;83.78;100934.06;126328;1093;62942;-78
2021/06/12 03:51:06;;;;;;;10.03;6.97;;;;;;;18.09;83.56;100934.45;126341;1093;63533;-76
2021/06/12 03:53:44;;;;;;;12.37;6.73;;;;;;;18.10;83.76;100939.59;125925;1093;63117;-76
2021/06/12 03:56:22;;;;;;;13.53;8.27;;;;;;;18.13;83.05;100938.35;126949;1093;62872;-77
2021/06/12 03:58:53;;;;;;;10.43;6.33;;;;;;;18.14;83.37;100938.11;128038;1092;62124;-76
2021/06/12 04:01:20;;;;;;;13.87;8.37;;;;;;;18.16;83.10;100929.84;127954;1092;62258;-76
2021/06/12 04:03:47;;;;;;;9.70;5.57;;;;;;;18.18;83.15;100938.50;127054;1093;62679;-77
2021/06/12 04:06:14;;;;;;;11.30;6.57;;;;;;;18.20;82.58;100931.05;126363;1093;64042;-77
2021/06/12 04:08:41;;;;;;;13.73;7.43;;;;;;;18.19;82.35;100926.73;126298;1092;62062;-77
2021/06/12 04:11:09;;;;;;;11.60;7.70;;;;;;;18.21;82.06;100931.86;126264;1093;63533;-77
2021/06/12 04:13:36;;;;;;;14.77;8.87;;;;;;;18.21;81.71;100921.13;126283;1093;64102;-79
2021/06/12 04:16:04;;;;;;;13.47;8.20;;;;;;;18.25;81.68;100928.52;126392;1093;63015;-77
2021/06/12 04:18:32;;;;;;;15.10;9.20;;;;;;;18.26;81.09;100930.17;126153;1093;63082;-77
2021/06/12 04:20:59;;;;;;;10.53;6.20;;;;;;;18.27;80.78;100937.17;125972;1093;63116;-78
2021/06/12 04:23:27;;;;;;;13.60;7.47;;;;;;;18.30;80.56;100944.81;126438;1093;64524;-77
2021/06/12 04:25:54;;;;;;;11.27;6.37;;;;;;;18.32;80.46;100928.48;126020;1092;62326;-78
2021/06/12 04:28:21;;;;;;;13.43;8.00;;;;;;;18.37;80.26;100925.13;126379;1093;63658;-78
2021/06/12 04:30:50;;;;;;;11.97;7.13;;;;;;;18.38;80.38;100922.20;126346;1093;63006;-77
2021/06/12 04:33:17;;;;;;;13.97;8.40;;;;;;;18.43;80.12;100918.88;126097;1093;63184;-77
2021/06/12 04:35:44;;;;;;;12.97;6.93;;;;;;;18.46;79.72;100921.11;126220;1092;62397;-77
2021/06/12 04:38:11;;;;;;;14.83;7.03;;;;;;;18.45;79.43;100922.98;126373;1093;64347;-78
2021/06/12 04:40:38;;;;;;;12.30;8.07;;;;;;;18.49;79.90;100928.74;126039;1093;62868;-78
2021/06/12 04:43:08;;;;;;;14.73;8.10;;;;;;;18.49;79.21;100928.74;126054;1093;64718;-78
2021/06/12 04:45:35;;;;;;;13.80;8.43;;;;;;;18.49;78.98;100940.30;126822;1093;62680;-79
2021/06/12 04:48:04;;;;;;;15.43;8.10;;;;;;;18.56;78.92;100928.67;126358;1093;62753;-79
2021/06/12 04:50:35;;;;;;;13.13;8.07;;;;;;;18.62;78.99;100928.59;126592;1093;62821;-80
2021/06/12 04:53:03;;;;;;;16.20;8.73;;;;;;;18.65;78.70;100919.27;126688;1093;63022;-78
2021/06/12 04:55:30;;;;;;;15.53;8.90;;;;;;;18.67;78.35;100914.48;126686;1093;62868;-79
2021/06/12 04:57:57;;;;;;;16.27;11.57;;;;;;;18.63;78.68;100914.11;126404;1092;63064;-80
2021/06/12 05:00:25;;;;;;;16.10;9.33;;;;;;;18.66;78.37;100913.67;126619;1093;62961;-79
2021/06/12 05:02:52;;;;;;;16.03;9.43;;;;;;;18.70;78.32;100920.25;126251;1093;63003;-78
2021/06/12 05:05:20;;;;;;;11.73;7.73;;;;;;;18.73;78.32;100916.29;126677;1092;62304;-80
2021/06/12 05:07:47;;;;;;;16.10;8.93;;;;;;;18.75;78.37;100906.95;126622;1093;63403;-79
2021/06/12 05:10:14;;;;;;;17.50;10.37;;;;;;;18.82;78.32;100908.78;126676;1092;63519;-79
2021/06/12 05:12:41;;;;;;;11.30;7.40;;;;;;;18.84;77.90;100907.50;126755;1093;63325;-78
2021/06/12 05:15:10;;;;;;;15.10;9.27;;;;;;;18.87;78.02;100922.35;126009;1092;62947;-79
2021/06/12 05:17:40;;;;;;;16.80;9.67;;;;;;;18.88;78.18;100932.89;126283;1093;64056;-77
2021/06/12 05:20:10;;;;;;;14.43;8.60;;;;;;;18.89;77.74;100941.77;126407;1093;62858;-77
2021/06/12 05:22:42;;;;;;;14.50;9.08;;;;;;;18.87;77.54;100931.27;125988;1093;62926;-77
2021/06/12 05:25:09;;;;;;;20.50;11.50;;;;;;;18.87;78.01;100927.73;126318;1093;64894;-77
2021/06/12 05:27:36;;;;;;;14.80;8.60;;;;;;;18.82;77.93;100914.16;126041;1093;63337;-77
2021/06/12 05:30:04;;;;;;;13.93;9.30;;;;;;;18.82;78.12;100922.22;127946;1092;62248;-77
2021/06/12 05:32:31;;;;;;;10.13;6.70;;;;;;;18.79;78.62;100922.67;127758;1093;62264;-78
2021/06/12 05:35:00;;;;;;;12.03;7.57;;;;;;;18.81;78.71;100925.96;128094;1091;62075;-78
2021/06/12 05:37:27;;;;;;;15.43;8.70;;;;;;;18.77;78.64;100927.42;128035;1092;62634;-79
2021/06/12 05:39:54;;;;;;;18.37;9.80;;;;;;;18.79;78.38;100936.11;128091;1093;62133;-78
2021/06/12 05:42:21;;;;;;;13.27;7.47;;;;;;;18.79;78.84;100933.43;128121;1092;63243;-78
2021/06/12 05:44:48;;;;;;;17.40;10.70;;;;;;;18.79;77.87;100944.99;127520;1093;62579;-78
2021/06/12 05:47:15;;;;;;;16.97;9.97;;;;;;;18.78;78.82;100947.86;126148;1092;62967;-78
2021/06/12 05:49:43;;;;;;;13.70;8.37;;;;;;;18.78;78.22;100937.11;126233;1092;61996;-78
2021/06/12 05:52:09;;;;;;;17.00;9.20;;;;;;;18.72;77.70;100928.06;126297;1093;62238;-79
2021/06/12 05:54:37;;;;;;;13.93;7.53;;;;;;;18.69;77.45;100934.72;126342;1093;63581;-75
2021/06/12 05:57:04;;;;;;;13.43;8.10;;;;;;;18.69;77.49;100934.72;126281;1093;63650;-75
2021/06/12 05:59:31;;;;;;;16.00;8.90;;;;;;;18.73;77.40;100941.28;126141;1092;62945;-76
2021/06/12 06:01:58;;;;;;;15.27;8.70;;;;;;;18.69;77.80;100950.84;126204;1092;62999;-76
2021/06/12 06:04:25;;;;;;;19.00;9.37;;;;;;;18.69;77.99;100950.02;126268;1092;63862;-76
2021/06/12 06:06:52;;;;;;;15.10;8.53;;;;;;;18.68;77.67;100938.46;126439;1092;62217;-76
2021/06/12 06:09:19;;;;;;;13.90;7.67;;;;;;;18.66;77.88;100937.05;126005;1092;63006;-77
2021/06/12 06:11:46;;;;;;;12.83;6.13;;;;;;;18.66;77.83;100935.17;126343;1093;62829;-76
2021/06/12 06:14:15;;;;;;;12.20;6.93;;;;;;;18.67;77.92;100941.36;126356;1093;62141;-77
2021/06/12 06:16:42;;;;;;;17.27;10.20;;;;;;;18.70;77.51;100940.91;126359;1093;62174;-76
2021/06/12 06:19:09;;;;;;;17.50;9.67;;;;;;;18.73;77.71;100941.28;126020;1092;63278;-77
2021/06/12 06:21:37;;;;;;;18.47;10.40;;;;;;;18.78;77.96;100929.89;126256;1093;62897;-77
2021/06/12 06:24:05;;;;;;;15.27;7.90;;;;;;;18.77;77.96;100930.11;126284;1093;63028;-76
2021/06/12 06:26:32;;;;;;;18.30;10.03;;;;;;;18.75;78.17;100925.77;126283;1093;63674;-76
2021/06/12 06:28:59;;;;;;;21.67;11.97;;;;;;;18.77;77.66;100935.48;126302;1093;62957;-75
2021/06/12 06:31:26;;;;;;;16.40;10.40;;;;;;;18.75;78.04;100931.14;126297;1093;62893;-76
2021/06/12 06:33:53;;;;;;;16.03;9.83;;;;;;;18.72;78.29;100931.59;126194;1093;62926;-76
2021/06/12 06:36:21;;;;;;;18.60;9.33;;;;;;;18.65;78.50;100928.14;125912;1093;63690;-75
2021/06/12 06:38:48;;;;;;;14.67;9.27;;;;;;;18.60;78.76;100928.00;126300;1092;63006;-75
2021/06/12 06:41:16;;;;;;;17.20;10.23;;;;;;;18.56;78.92;100931.36;126313;1093;63110;-76
2021/06/12 06:43:45;;;;;;;17.20;10.87;;;;;;;18.56;79.10;100921.42;126204;1093;62748;-76
2021/06/12 06:46:12;;;;;;;15.47;9.37;;;;;;;18.62;79.08;100922.41;126306;1092;62629;-76
2021/06/12 06:48:40;;;;;;;16.93;9.87;;;;;;;18.64;78.64;100923.02;126164;1093;63069;-77
2021/06/12 06:51:07;;;;;;;14.83;9.10;;;;;;;18.64;78.83;100918.45;126260;1093;63006;-77
2021/06/12 06:53:34;;;;;;;18.47;10.50;;;;;;;18.70;78.64;100927.47;126335;1093;62276;-77
2021/06/12 06:56:04;;;;;;;13.27;8.27;;;;;;;18.71;78.24;100932.63;127447;1092;63132;-76
2021/06/12 06:58:32;;;;;;;18.57;10.63;;;;;;;18.77;78.32;100922.86;127832;1093;62286;-75
2021/06/12 07:01:02;;;;;;;13.80;8.97;;;;;;;18.79;78.30;100922.67;127880;1093;62295;-75
2021/06/12 07:03:30;;;;;;;15.93;9.87;;;;;;;18.83;78.06;100921.16;126215;1093;62842;-75
2021/06/12 07:05:57;;;;;;;15.67;9.40;;;;;;;18.83;78.39;100916.63;126221;1092;64470;-76
2021/06/12 07:08:24;;;;;;;14.17;9.20;;;;;;;18.87;78.02;100920.51;126404;1093;62742;-76
2021/06/12 07:10:51;;;;;;;17.40;10.07;;;;;;;18.94;78.17;100920.42;126228;1093;63521;-75
2021/06/12 07:13:23;;;;;;;13.43;8.23;;;;;;;18.99;77.64;100920.56;126336;1092;62220;-75
2021/06/12 07:15:51;;;;;;;13.20;7.57;;;;;;;19.05;77.36;100919.66;126384;1093;63110;-75
2021/06/12 07:18:18;;;;;;;15.17;10.57;;;;;;;19.18;76.84;100904.41;126309;1093;63458;-76
2021/06/12 07:20:47;;;;;;;15.87;9.77;;;;;;;19.34;76.66;100899.23;126277;1093;63028;-74
2021/06/12 07:23:16;;;;;;;13.53;7.27;;;;;;;19.48;76.36;100899.84;126247;1093;62897;-75
2021/06/12 07:25:44;;;;;;;15.13;8.60;;;;;;;19.67;74.99;100897.10;126274;1092;62782;-76
2021/06/12 07:28:13;;;;;;;17.30;9.37;;;;;;;19.81;74.60;100887.81;126322;1093;63009;-76
2021/06/12 07:30:41;;;;;;;12.40;8.17;;;;;;;19.90;74.27;100886.41;126253;1093;63705;-75
2021/06/12 07:33:09;;;;;;;16.90;8.67;;;;;;;19.94;73.34;100890.28;125960;1093;63012;-74
2021/06/12 07:35:37;;;;;;;14.13;9.60;;;;;;;20.06;72.65;100889.45;126311;1092;62175;-75
2021/06/12 07:38:04;;;;;;;10.87;5.53;;;;;;;20.15;72.69;100893.47;125966;1093;63602;-75
2021/06/12 07:40:32;;;;;;;11.87;7.40;;;;;;;20.20;72.20;100898.96;126287;1093;62973;-75
2021/06/12 07:42:59;;;;;;;9.30;6.03;;;;;;;20.14;71.68;100898.01;126473;1093;63611;-75
2021/06/12 07:45:27;;;;;;;12.43;7.43;;;;;;;20.15;72.34;100898.85;126295;1092;63052;-75
2021/06/12 07:47:54;;;;;;;14.03;8.97;;;;;;;20.17;72.75;100894.05;126313;1093;63099;-75
2021/06/12 07:50:22;;;;;;;14.90;7.70;;;;;;;20.23;71.81;100893.13;126274;1092;63010;-75
2021/06/12 07:52:49;;;;;;;10.50;6.60;;;;;;;20.26;71.85;100900.72;125942;1092;62906;-76
2021/06/12 07:55:16;;;;;;;15.30;7.57;;;;;;;20.34;71.82;100897.67;126323;1093;63463;-74
2021/06/12 07:57:43;;;;;;;10.75;8.05;;;;;;;20.37;71.52;100902.58;125994;1093;62848;-75
2021/06/12 08:00:11;;;;;;;8.57;6.37;;;;;;;20.34;71.77;100913.03;126302;1093;63617;-76
2021/06/12 08:02:38;;;;;;;14.07;7.67;;;;;;;20.30;71.44;100914.55;125980;1093;64355;-75
2021/06/12 08:05:06;;;;;;;9.40;6.33;;;;;;;20.22;70.87;100921.09;126243;1093;62952;-76
2021/06/12 08:07:33;;;;;;;9.83;5.70;;;;;;;20.24;70.84;100918.98;126532;1092;62900;-74
2021/06/12 08:10:02;;;;;;;9.97;5.87;;;;;;;20.35;70.48;100896.61;126330;1093;64226;-76
2021/06/12 08:12:31;;;;;;;8.03;5.10;;;;;;;20.53;70.01;100900.25;126036;1093;63454;-75
2021/06/12 08:14:58;;;;;;;7.47;5.10;;;;;;;20.62;69.60;100893.47;126255;1093;63009;-75
2021/06/12 08:17:25;;;;;;;12.00;5.80;;;;;;;20.75;69.54;100878.91;125920;1093;63173;-74
2021/06/12 08:19:52;;;;;;;6.27;4.07;;;;;;;20.87;68.24;100887.80;126319;1093;63040;-75
2021/06/12 08:22:19;;;;;;;7.33;4.47;;;;;;;20.95;67.80;100878.48;126494;1092;62974;-76
2021/06/12 08:24:48;;;;;;;5.73;3.07;;;;;;;21.11;67.36;100890.41;126512;1092;63536;-75
2021/06/12 08:27:16;;;;;;;5.53;3.70;;;;;;;21.22;66.93;100896.82;126388;1093;63844;-76
2021/06/12 08:29:44;;;;;;;6.25;5.10;;;;;;;21.35;67.32;100910.02;126472;1092;62502;-76
2021/06/12 08:32:11;;;;;;;8.73;4.60;;;;;;;21.41;67.15;100898.25;126054;1093;62392;-76
2021/06/12 08:34:39;;;;;;;6.07;4.03;;;;;;;21.34;66.73;100884.10;126308;1093;63651;-76
2021/06/12 08:37:06;;;;;;;7.37;5.00;;;;;;;21.19;66.41;100876.55;126304;1093;64419;-74
2021/06/12 08:39:33;;;;;;;6.77;3.90;;;;;;;21.09;66.70;100882.55;126482;1092;63023;-75
2021/06/12 08:42:00;;;;;;;4.30;3.00;;;;;;;20.95;67.58;100881.19;126319;1092;62945;-75
2021/06/12 08:44:28;;;;;;;5.77;4.13;;;;;;;20.94;67.83;100880.38;126216;1093;62845;-76
2021/06/12 08:46:55;;;;;;;6.43;3.90;;;;;;;20.83;68.47;100877.73;126410;1093;62427;-75
2021/06/12 08:49:22;;;;;;;6.57;4.63;;;;;;;20.88;68.55;100885.91;126295;1093;62467;-75
2021/06/12 08:51:52;;;;;;;5.47;4.00;;;;;;;21.00;67.85;100880.49;126410;1093;62264;-76
2021/06/12 08:54:21;;;;;;;10.67;5.40;;;;;;;21.01;67.58;100880.23;126274;1093;62165;-76
2021/06/12 08:56:50;;;;;;;7.80;5.70;;;;;;;21.04;67.25;100879.77;126353;1093;63156;-77
2021/06/12 08:59:17;;;;;;;9.80;5.23;;;;;;;21.13;67.33;100883.70;126310;1093;63590;-76
2021/06/12 09:01:47;;;;;;;9.00;5.20;;;;;;;21.27;66.76;100883.41;126613;1093;63015;-76
2021/06/12 09:04:31;;;;;;;6.40;4.47;;;;;;;21.42;66.89;100880.20;126263;1093;64146;-75
2021/06/12 09:07:18;;;;;;;7.13;4.27;;;;;;;21.34;66.67;100876.82;126371;1092;62964;-74
2021/06/12 09:09:51;;;;;;;7.30;4.60;;;;;;;21.27;66.43;100881.55;126252;1093;62315;-74
2021/06/12 09:12:19;;;;;;;9.17;5.03;;;;;;;21.21;65.23;100874.42;126301;1093;62523;-76
2021/06/12 09:15:10;;;;;;;8.53;5.53;;;;;;;21.39;65.00;100882.30;126312;1093;63088;-76
2021/06/12 09:17:43;;;;;;;7.07;4.77;;;;;;;21.62;64.96;100874.36;126164;1093;64515;-75
2021/06/12 09:20:10;;;;;;;8.40;5.23;;;;;;;21.74;63.47;100884.03;126356;1093;63006;-75
2021/06/12 09:22:38;;;;;;;6.00;5.00;;;;;;;21.65;63.46;100865.77;126257;1092;62294;-75
2021/06/12 09:25:05;;;;;;;9.20;5.37;;;;;;;21.51;63.89;100863.39;126446;1093;62173;-75
2021/06/12 09:27:32;;;;;;;6.83;4.20;;;;;;;21.50;64.06;100861.73;126306;1093;62301;-75
2021/06/12 09:30:02;;;;;;;5.70;3.57;;;;;;;21.38;64.48;100863.67;126349;1093;63436;-75
2021/06/12 09:32:32;;;;;;;8.80;4.37;;;;;;;21.20;65.32;100871.96;126231;1093;63009;-75
2021/06/12 09:35:06;;;;;;;5.53;3.87;;;;;;;21.10;66.39;100862.63;126519;1091;62929;-74
2021/06/12 09:37:33;;;;;;;9.48;5.53;;;;;;;20.95;65.69;100884.72;126365;1092;62935;-75
2021/06/12 09:40:10;;;;;;;7.00;4.33;;;;;;;20.82;66.64;100871.49;126305;1092;64400;-75
2021/06/12 09:42:41;;;;;;;8.87;5.93;;;;;;;20.75;67.29;100879.72;126434;1092;64038;-75
2021/06/12 09:45:20;;;;;;;5.67;4.10;;;;;;;20.76;66.84;100873.28;126328;1093;63009;-75
2021/06/12 09:47:47;;;;;;;7.63;5.27;;;;;;;20.85;66.44;100884.52;126401;1093;63284;-75
2021/06/12 09:50:15;;;;;;;8.27;4.23;;;;;;;21.07;65.74;100878.46;126342;1093;62938;-75
2021/06/12 09:52:46;;;;;;;9.93;5.23;;;;;;;21.26;65.67;100877.20;127036;1092;62929;-75
2021/06/12 09:55:29;;;;;;;8.83;5.10;;;;;;;21.21;65.39;100893.31;127630;1092;63041;-76
2021/06/12 09:57:59;;;;;;;8.73;6.43;;;;;;;20.91;66.17;100893.50;126354;1093;63485;-76
2021/06/12 10:00:34;;;;;;;7.40;5.90;;;;;;;20.75;67.55;100887.80;126438;1093;62097;-76
2021/06/12 10:03:03;;;;;;;9.40;6.53;;;;;;;20.47;68.45;100874.25;126231;1093;62340;-75
2021/06/12 10:05:30;;;;;;;10.67;6.47;;;;;;;20.27;69.75;100891.57;126350;1093;62893;-74
2021/06/12 10:07:57;;;;;;;9.17;6.20;;;;;;;20.02;71.35;100886.44;126244;1093;63005;-74
2021/06/12 10:10:25;;;;;;;8.60;5.83;;;;;;;19.84;72.25;100903.48;126391;1093;62453;-75
2021/06/12 10:12:53;;;;;;;9.13;5.90;;;;;;;19.65;73.54;100899.20;126284;1093;64320;-75
2021/06/12 10:15:21;;;;;;;10.03;6.30;;;;;;;19.62;73.15;100887.03;126334;1093;62941;-74
2021/06/12 10:17:51;;;;;;;10.30;6.70;;;;;;;19.66;73.43;100885.52;126281;1093;63075;-74
2021/06/12 10:20:24;;;;;;;12.07;5.77;;;;;;;19.78;72.66;100882.05;126312;1092;63543;-75
2021/06/12 10:22:53;;;;;;;8.63;5.77;;;;;;;20.10;72.04;100879.86;126081;1093;62938;-75
2021/06/12 10:25:22;;;;;;;9.17;6.83;;;;;;;20.51;70.49;100881.62;126360;1092;62932;-75
2021/06/12 10:27:50;;;;;;;8.90;6.07;;;;;;;20.60;69.73;100879.41;125981;1093;63166;-75
2021/06/12 10:30:21;;;;;;;11.13;6.17;;;;;;;20.66;69.84;100873.06;126275;1093;63104;-76
2021/06/12 10:32:50;;;;;;;10.03;7.00;;;;;;;20.54;67.93;100886.52;126428;1092;63031;-75
2021/06/12 10:35:19;;;;;;;9.20;5.63;;;;;;;20.48;69.34;100889.34;126484;1093;62945;-76
2021/06/12 10:38:09;;;;;;;7.80;5.57;;;;;;;20.48;66.79;100897.42;126162;1093;63771;-76
2021/06/12 10:40:38;;;;;;;8.30;4.67;;;;;;;20.52;66.88;100893.20;126253;1093;62980;-76
2021/06/12 10:43:11;;;;;;;7.27;5.90;;;;;;;20.69;66.33;100888.75;126321;1093;62219;-74
2021/06/12 10:45:39;;;;;;;7.70;5.47;;;;;;;21.17;64.63;100887.56;126436;1093;62762;-75
2021/06/12 10:48:06;;;;;;;9.90;6.00;;;;;;;21.46;63.62;100881.36;126358;1093;62245;-75
2021/06/12 10:50:41;;;;;;;7.27;5.43;;;;;;;21.37;62.25;100905.20;126361;1093;62929;-76
2021/06/12 10:53:15;;;;;;;;;;;;;;;21.26;62.40;100892.58;126410;1093;62887;-76
2021/06/12 10:55:48;;;;;;;4.30;2.83;;;;;;;21.11;56.69;100880.44;126301;1092;62846;-75
2021/06/12 10:58:48;;;;;;;6.03;2.40;;;;;;;20.97;54.53;100911.43;126260;1093;63009;-76
2021/06/12 11:01:20;;;;;;;10.00;2.90;;;;;;;21.07;54.60;100887.36;126073;1093;62338;-75
2021/06/12 11:06:34;;;;;;;5.93;3.10;;;;;;;21.39;53.61;100884.19;126206;1093;62747;-77
2021/06/12 11:09:13;;;;;;;6.00;2.80;;;;;;;21.64;53.39;100891.95;126936;1093;62765;-76
2021/06/12 11:11:44;;;;;;;4.33;3.23;;;;;;;21.86;53.31;100881.23;126892;1093;62143;-76
2021/06/12 11:14:20;;;;;;;6.00;3.00;;;;;;;22.20;53.31;100881.21;126310;1092;62938;-75
2021/06/12 11:17:12;;;;;;;5.63;3.53;;;;;;;22.65;53.37;100893.75;126521;1093;63009;-76
2021/06/12 11:20:11;;;;;;;4.67;3.37;;;;;;;22.85;51.86;100895.11;126232;1093;62646;-77
2021/06/12 11:22:50;;;;;;;6.43;2.50;;;;;;;22.82;49.67;100912.63;126318;1093;64468;-77
2021/06/12 11:25:17;;;;;;;10.73;2.70;;;;;;;22.48;49.54;100925.42;126326;1093;62256;-76
2021/06/12 11:27:49;;;;;;;3.90;2.20;;;;;;;22.17;48.96;100911.45;126230;1093;62210;-75